sensor_id;sensor_type;location;lat;lon;timestamp;P1;durP1;ratioP1;P2;durP2;ratioP2
64353;SDS011;50681;53.334;-6.536;2023-03-14T00:02:10;10.40;;;2.45;;
64353;SDS011;50681;53.334;-6.536;2023-03-14T00:04:35;15.60;;;2.73;;
64353;SDS011;50681;53.334;-6.536;2023-03-14T00:07:03;6.85;;;1.50;;
64353;SDS011;50681;53.334;-6.536;2023-03-14T00:09:29;10.73;;;2.50;;
64353;SDS011;50681;53.334;-6.536;2023-03-14T00:11:55;17.47;;;2.67;;
64353;SDS011;50681;53.334;-6.536;2023-03-14T00:14:20;9.40;;;2.22;;
64353;SDS011;50681;53.334;-6.536;2023-03-14T00:16:46;6.27;;;1.80;;
64353;SDS011;50681;53.334;-6.536;2023-03-14T00:19:11;8.40;;;2.43;;
64353;SDS011;50681;53.334;-6.536;2023-03-14T00:21:37;10.60;;;3.17;;
64353;SDS011;50681;53.334;-6.536;2023-03-14T00:24:02;17.70;;;3.33;;
64353;SDS011;50681;53.334;-6.536;2023-03-14T00:26:28;12.53;;;2.90;;
64353;SDS011;50681;53.334;-6.536;2023-03-14T00:28:53;15.70;;;3.33;;
64353;SDS011;50681;53.334;-6.536;2023-03-14T00:31:19;13.32;;;2.65;;
64353;SDS011;50681;53.334;-6.536;2023-03-14T00:33:45;13.30;;;2.90;;
64353;SDS011;50681;53.334;-6.536;2023-03-14T00:36:12;13.93;;;2.97;;
64353;SDS011;50681;53.334;-6.536;2023-03-14T00:38:42;9.73;;;2.90;;
64353;SDS011;50681;53.334;-6.536;2023-03-14T00:41:10;14.67;;;2.87;;
64353;SDS011;50681;53.334;-6.536;2023-03-14T00:43:38;5.17;;;1.90;;
64353;SDS011;50681;53.334;-6.536;2023-03-14T00:48:29;8.10;;;2.23;;
64353;SDS011;50681;53.334;-6.536;2023-03-14T00:50:54;14.90;;;2.60;;
64353;SDS011;50681;53.334;-6.536;2023-03-14T00:53:20;7.37;;;2.40;;
64353;SDS011;50681;53.334;-6.536;2023-03-14T00:55:46;8.87;;;2.20;;
64353;SDS011;50681;53.334;-6.536;2023-03-14T00:58:12;12.83;;;2.63;;
64353;SDS011;50681;53.334;-6.536;2023-03-14T01:00:40;13.50;;;2.27;;
64353;SDS011;50681;53.334;-6.536;2023-03-14T01:03:06;11.57;;;2.38;;
64353;SDS011;50681;53.334;-6.536;2023-03-14T01:05:32;8.18;;;2.20;;
64353;SDS011;50681;53.334;-6.536;2023-03-14T01:07:58;9.53;;;2.20;;
64353;SDS011;50681;53.334;-6.536;2023-03-14T01:10:23;17.23;;;2.57;;
64353;SDS011;50681;53.334;-6.536;2023-03-14T01:12:49;7.07;;;1.77;;
64353;SDS011;50681;53.334;-6.536;2023-03-14T01:15:15;12.37;;;2.07;;
64353;SDS011;50681;53.334;-6.536;2023-03-14T01:17:40;13.73;;;1.83;;
64353;SDS011;50681;53.334;-6.536;2023-03-14T01:20:07;3.57;;;1.40;;
64353;SDS011;50681;53.334;-6.536;2023-03-14T01:22:35;11.33;;;1.90;;
64353;SDS011;50681;53.334;-6.536;2023-03-14T01:25:01;6.72;;;1.85;;
64353;SDS011;50681;53.334;-6.536;2023-03-14T01:27:26;7.43;;;1.63;;
64353;SDS011;50681;53.334;-6.536;2023-03-14T01:29:52;9.73;;;1.90;;
64353;SDS011;50681;53.334;-6.536;2023-03-14T01:32:17;5.53;;;1.50;;
64353;SDS011;50681;53.334;-6.536;2023-03-14T01:34:43;10.17;;;1.33;;
64353;SDS011;50681;53.334;-6.536;2023-03-14T01:37:08;7.50;;;2.37;;
64353;SDS011;50681;53.334;-6.536;2023-03-14T01:39:34;11.90;;;1.93;;
64353;SDS011;50681;53.334;-6.536;2023-03-14T01:42:02;13.30;;;1.83;;
64353;SDS011;50681;53.334;-6.536;2023-03-14T01:44:28;3.03;;;1.30;;
64353;SDS011;50681;53.334;-6.536;2023-03-14T01:46:53;5.17;;;1.37;;
64353;SDS011;50681;53.334;-6.536;2023-03-14T01:52:07;10.03;;;2.10;;
64353;SDS011;50681;53.334;-6.536;2023-03-14T01:54:46;10.77;;;1.93;;
64353;SDS011;50681;53.334;-6.536;2023-03-14T02:00:04;7.47;;;1.70;;
64353;SDS011;50681;53.334;-6.536;2023-03-14T02:02:39;8.90;;;1.70;;
64353;SDS011;50681;53.334;-6.536;2023-03-14T02:05:09;10.63;;;1.43;;
64353;SDS011;50681;53.334;-6.536;2023-03-14T02:07:50;11.57;;;2.30;;
64353;SDS011;50681;53.334;-6.536;2023-03-14T02:10:19;11.07;;;2.07;;
64353;SDS011;50681;53.334;-6.536;2023-03-14T02:12:49;7.33;;;1.70;;
64353;SDS011;50681;53.334;-6.536;2023-03-14T02:15:16;9.93;;;1.83;;
64353;SDS011;50681;53.334;-6.536;2023-03-14T02:17:42;5.43;;;1.98;;
64353;SDS011;50681;53.334;-6.536;2023-03-14T02:23:05;6.00;;;1.57;;
64353;SDS011;50681;53.334;-6.536;2023-03-14T02:28:11;4.73;;;1.27;;
64353;SDS011;50681;53.334;-6.536;2023-03-14T02:30:37;4.90;;;1.35;;
64353;SDS011;50681;53.334;-6.536;2023-03-14T02:35:42;3.45;;;1.40;;
64353;SDS011;50681;53.334;-6.536;2023-03-14T02:41:04;4.77;;;1.40;;
64353;SDS011;50681;53.334;-6.536;2023-03-14T02:43:30;6.03;;;1.40;;
64353;SDS011;50681;53.334;-6.536;2023-03-14T02:45:55;6.33;;;1.30;;
64353;SDS011;50681;53.334;-6.536;2023-03-14T02:51:06;4.37;;;1.47;;
64353;SDS011;50681;53.334;-6.536;2023-03-14T02:53:34;6.75;;;1.48;;
64353;SDS011;50681;53.334;-6.536;2023-03-14T02:56:02;3.00;;;1.30;;
64353;SDS011;50681;53.334;-6.536;2023-03-14T02:58:28;3.85;;;1.33;;
64353;SDS011;50681;53.334;-6.536;2023-03-14T03:00:54;7.05;;;1.50;;
64353;SDS011;50681;53.334;-6.536;2023-03-14T03:03:20;9.37;;;1.67;;
64353;SDS011;50681;53.334;-6.536;2023-03-14T03:05:49;8.43;;;1.90;;
64353;SDS011;50681;53.334;-6.536;2023-03-14T03:08:16;5.40;;;1.23;;
64353;SDS011;50681;53.334;-6.536;2023-03-14T03:10:42;8.02;;;1.35;;
64353;SDS011;50681;53.334;-6.536;2023-03-14T03:13:07;5.73;;;1.47;;
64353;SDS011;50681;53.334;-6.536;2023-03-14T03:15:33;7.30;;;1.60;;
64353;SDS011;50681;53.334;-6.536;2023-03-14T03:17:59;3.92;;;1.60;;
64353;SDS011;50681;53.334;-6.536;2023-03-14T03:20:24;3.90;;;1.50;;
64353;SDS011;50681;53.334;-6.536;2023-03-14T03:22:50;7.23;;;1.40;;
64353;SDS011;50681;53.334;-6.536;2023-03-14T03:25:15;8.03;;;1.70;;
64353;SDS011;50681;53.334;-6.536;2023-03-14T03:27:48;6.00;;;1.50;;
64353;SDS011;50681;53.334;-6.536;2023-03-14T03:30:13;6.27;;;1.50;;
64353;SDS011;50681;53.334;-6.536;2023-03-14T03:32:39;8.70;;;1.40;;
64353;SDS011;50681;53.334;-6.536;2023-03-14T03:35:04;4.07;;;1.23;;
64353;SDS011;50681;53.334;-6.536;2023-03-14T03:37:31;5.15;;;1.33;;
64353;SDS011;50681;53.334;-6.536;2023-03-14T03:39:57;5.70;;;1.20;;
64353;SDS011;50681;53.334;-6.536;2023-03-14T03:42:22;6.03;;;0.90;;
64353;SDS011;50681;53.334;-6.536;2023-03-14T03:44:47;2.83;;;0.70;;
64353;SDS011;50681;53.334;-6.536;2023-03-14T03:47:13;5.57;;;2.00;;
64353;SDS011;50681;53.334;-6.536;2023-03-14T03:49:39;7.47;;;1.13;;
64353;SDS011;50681;53.334;-6.536;2023-03-14T03:52:04;7.17;;;1.40;;
64353;SDS011;50681;53.334;-6.536;2023-03-14T03:54:29;5.07;;;1.30;;
64353;SDS011;50681;53.334;-6.536;2023-03-14T03:56:55;6.63;;;1.30;;
64353;SDS011;50681;53.334;-6.536;2023-03-14T03:59:20;6.47;;;1.30;;
64353;SDS011;50681;53.334;-6.536;2023-03-14T04:01:46;5.75;;;1.13;;
64353;SDS011;50681;53.334;-6.536;2023-03-14T04:04:12;1.67;;;0.90;;
64353;SDS011;50681;53.334;-6.536;2023-03-14T04:06:38;7.25;;;1.27;;
64353;SDS011;50681;53.334;-6.536;2023-03-14T04:09:03;6.17;;;1.17;;
64353;SDS011;50681;53.334;-6.536;2023-03-14T04:11:29;5.10;;;1.17;;
64353;SDS011;50681;53.334;-6.536;2023-03-14T04:13:54;3.67;;;1.07;;
64353;SDS011;50681;53.334;-6.536;2023-03-14T04:16:21;6.47;;;0.93;;
64353;SDS011;50681;53.334;-6.536;2023-03-14T04:18:50;3.73;;;1.13;;
64353;SDS011;50681;53.334;-6.536;2023-03-14T04:21:16;9.88;;;1.35;;
64353;SDS011;50681;53.334;-6.536;2023-03-14T04:23:42;7.30;;;1.08;;
64353;SDS011;50681;53.334;-6.536;2023-03-14T04:26:08;0.90;;;0.53;;
64353;SDS011;50681;53.334;-6.536;2023-03-14T04:28:33;3.20;;;1.00;;
64353;SDS011;50681;53.334;-6.536;2023-03-14T04:33:39;3.73;;;1.00;;
64353;SDS011;50681;53.334;-6.536;2023-03-14T04:36:05;4.73;;;1.20;;
64353;SDS011;50681;53.334;-6.536;2023-03-14T04:38:31;5.60;;;1.03;;
64353;SDS011;50681;53.334;-6.536;2023-03-14T04:40:57;10.63;;;1.50;;
64353;SDS011;50681;53.334;-6.536;2023-03-14T04:43:22;3.28;;;1.02;;
64353;SDS011;50681;53.334;-6.536;2023-03-14T04:45:48;8.27;;;1.57;;
64353;SDS011;50681;53.334;-6.536;2023-03-14T04:48:13;5.27;;;1.60;;
64353;SDS011;50681;53.334;-6.536;2023-03-14T04:50:39;9.00;;;1.17;;
64353;SDS011;50681;53.334;-6.536;2023-03-14T04:53:04;9.37;;;1.10;;
64353;SDS011;50681;53.334;-6.536;2023-03-14T04:55:31;4.97;;;1.20;;
64353;SDS011;50681;53.334;-6.536;2023-03-14T05:00:23;4.93;;;1.30;;
64353;SDS011;50681;53.334;-6.536;2023-03-14T05:02:48;7.80;;;1.20;;
64353;SDS011;50681;53.334;-6.536;2023-03-14T05:05:14;4.83;;;1.30;;
64353;SDS011;50681;53.334;-6.536;2023-03-14T05:07:39;7.37;;;1.50;;
64353;SDS011;50681;53.334;-6.536;2023-03-14T05:10:05;8.87;;;1.10;;
64353;SDS011;50681;53.334;-6.536;2023-03-14T05:12:30;7.57;;;1.40;;
64353;SDS011;50681;53.334;-6.536;2023-03-14T05:14:56;7.67;;;1.20;;
64353;SDS011;50681;53.334;-6.536;2023-03-14T05:17:21;10.00;;;1.40;;
64353;SDS011;50681;53.334;-6.536;2023-03-14T05:19:47;5.30;;;1.40;;
64353;SDS011;50681;53.334;-6.536;2023-03-14T05:22:12;6.13;;;1.30;;
64353;SDS011;50681;53.334;-6.536;2023-03-14T05:24:38;8.13;;;1.60;;
64353;SDS011;50681;53.334;-6.536;2023-03-14T05:27:04;3.53;;;1.13;;
64353;SDS011;50681;53.334;-6.536;2023-03-14T05:29:29;6.10;;;1.40;;
64353;SDS011;50681;53.334;-6.536;2023-03-14T05:31:55;7.70;;;1.30;;
64353;SDS011;50681;53.334;-6.536;2023-03-14T05:34:20;6.70;;;1.57;;
64353;SDS011;50681;53.334;-6.536;2023-03-14T05:36:46;6.40;;;1.33;;
64353;SDS011;50681;53.334;-6.536;2023-03-14T05:39:11;4.60;;;1.07;;
64353;SDS011;50681;53.334;-6.536;2023-03-14T05:41:37;3.43;;;1.33;;
64353;SDS011;50681;53.334;-6.536;2023-03-14T05:44:02;5.60;;;1.50;;
64353;SDS011;50681;53.334;-6.536;2023-03-14T05:46:28;4.43;;;1.13;;
64353;SDS011;50681;53.334;-6.536;2023-03-14T05:48:55;4.40;;;1.40;;
64353;SDS011;50681;53.334;-6.536;2023-03-14T05:51:21;5.85;;;1.45;;
64353;SDS011;50681;53.334;-6.536;2023-03-14T05:53:47;5.03;;;1.43;;
64353;SDS011;50681;53.334;-6.536;2023-03-14T05:56:12;4.30;;;1.33;;
64353;SDS011;50681;53.334;-6.536;2023-03-14T05:58:37;7.03;;;1.67;;
64353;SDS011;50681;53.334;-6.536;2023-03-14T06:01:04;9.10;;;1.50;;
64353;SDS011;50681;53.334;-6.536;2023-03-14T06:03:32;6.07;;;1.33;;
64353;SDS011;50681;53.334;-6.536;2023-03-14T06:05:57;9.43;;;1.57;;
64353;SDS011;50681;53.334;-6.536;2023-03-14T06:08:23;6.80;;;1.20;;
64353;SDS011;50681;53.334;-6.536;2023-03-14T06:10:49;6.95;;;1.50;;
64353;SDS011;50681;53.334;-6.536;2023-03-14T06:13:15;2.28;;;1.30;;
64353;SDS011;50681;53.334;-6.536;2023-03-14T06:15:41;10.93;;;1.47;;
64353;SDS011;50681;53.334;-6.536;2023-03-14T06:18:06;6.40;;;1.30;;
64353;SDS011;50681;53.334;-6.536;2023-03-14T06:20:32;8.57;;;1.43;;
64353;SDS011;50681;53.334;-6.536;2023-03-14T06:22:58;5.05;;;1.25;;
64353;SDS011;50681;53.334;-6.536;2023-03-14T06:25:23;6.90;;;1.47;;
64353;SDS011;50681;53.334;-6.536;2023-03-14T06:27:49;6.90;;;1.50;;
64353;SDS011;50681;53.334;-6.536;2023-03-14T06:30:15;3.40;;;1.30;;
64353;SDS011;50681;53.334;-6.536;2023-03-14T06:32:40;10.83;;;1.77;;
64353;SDS011;50681;53.334;-6.536;2023-03-14T06:35:06;4.87;;;1.40;;
64353;SDS011;50681;53.334;-6.536;2023-03-14T06:37:31;6.77;;;1.90;;
64353;SDS011;50681;53.334;-6.536;2023-03-14T06:39:57;7.70;;;1.33;;
64353;SDS011;50681;53.334;-6.536;2023-03-14T06:42:22;3.47;;;1.40;;
64353;SDS011;50681;53.334;-6.536;2023-03-14T06:44:48;4.73;;;1.50;;
64353;SDS011;50681;53.334;-6.536;2023-03-14T06:47:13;4.77;;;1.20;;
64353;SDS011;50681;53.334;-6.536;2023-03-14T06:49:39;11.63;;;1.83;;
64353;SDS011;50681;53.334;-6.536;2023-03-14T06:52:04;4.93;;;1.43;;
64353;SDS011;50681;53.334;-6.536;2023-03-14T06:54:30;9.73;;;1.87;;
64353;SDS011;50681;53.334;-6.536;2023-03-14T06:56:55;4.13;;;1.63;;
64353;SDS011;50681;53.334;-6.536;2023-03-14T06:59:21;7.10;;;1.70;;
64353;SDS011;50681;53.334;-6.536;2023-03-14T07:01:46;4.60;;;1.40;;
64353;SDS011;50681;53.334;-6.536;2023-03-14T07:06:38;5.97;;;1.83;;
64353;SDS011;50681;53.334;-6.536;2023-03-14T07:09:04;5.00;;;1.80;;
64353;SDS011;50681;53.334;-6.536;2023-03-14T07:11:30;3.22;;;1.50;;
64353;SDS011;50681;53.334;-6.536;2023-03-14T07:13:55;8.50;;;2.03;;
64353;SDS011;50681;53.334;-6.536;2023-03-14T07:16:21;11.17;;;1.93;;
64353;SDS011;50681;53.334;-6.536;2023-03-14T07:18:46;5.87;;;1.67;;
64353;SDS011;50681;53.334;-6.536;2023-03-14T07:21:12;4.37;;;1.83;;
64353;SDS011;50681;53.334;-6.536;2023-03-14T07:23:38;10.47;;;2.20;;
64353;SDS011;50681;53.334;-6.536;2023-03-14T07:26:03;11.13;;;1.90;;
64353;SDS011;50681;53.334;-6.536;2023-03-14T07:28:29;8.25;;;2.03;;
64353;SDS011;50681;53.334;-6.536;2023-03-14T07:30:55;3.57;;;1.63;;
64353;SDS011;50681;53.334;-6.536;2023-03-14T07:33:20;4.73;;;1.77;;
64353;SDS011;50681;53.334;-6.536;2023-03-14T07:35:48;11.90;;;3.83;;
64353;SDS011;50681;53.334;-6.536;2023-03-14T07:38:14;7.83;;;2.23;;
64353;SDS011;50681;53.334;-6.536;2023-03-14T07:40:40;7.60;;;2.10;;
64353;SDS011;50681;53.334;-6.536;2023-03-14T07:43:06;4.00;;;1.60;;
64353;SDS011;50681;53.334;-6.536;2023-03-14T07:45:32;8.07;;;1.83;;
64353;SDS011;50681;53.334;-6.536;2023-03-14T07:47:57;8.07;;;1.80;;
64353;SDS011;50681;53.334;-6.536;2023-03-14T07:50:23;10.57;;;2.20;;
64353;SDS011;50681;53.334;-6.536;2023-03-14T07:52:52;10.77;;;2.30;;
64353;SDS011;50681;53.334;-6.536;2023-03-14T07:55:19;7.57;;;2.03;;
64353;SDS011;50681;53.334;-6.536;2023-03-14T07:57:45;7.47;;;2.20;;
64353;SDS011;50681;53.334;-6.536;2023-03-14T08:00:11;5.60;;;1.60;;
64353;SDS011;50681;53.334;-6.536;2023-03-14T08:02:36;5.35;;;1.83;;
64353;SDS011;50681;53.334;-6.536;2023-03-14T08:05:03;8.10;;;2.03;;
64353;SDS011;50681;53.334;-6.536;2023-03-14T08:07:28;11.32;;;2.53;;
64353;SDS011;50681;53.334;-6.536;2023-03-14T08:09:54;20.02;;;2.70;;
64353;SDS011;50681;53.334;-6.536;2023-03-14T08:12:20;7.10;;;2.20;;
64353;SDS011;50681;53.334;-6.536;2023-03-14T08:14:45;13.47;;;2.37;;
64353;SDS011;50681;53.334;-6.536;2023-03-14T08:17:11;10.07;;;2.13;;
64353;SDS011;50681;53.334;-6.536;2023-03-14T08:19:37;14.20;;;2.38;;
64353;SDS011;50681;53.334;-6.536;2023-03-14T08:22:02;10.23;;;1.93;;
64353;SDS011;50681;53.334;-6.536;2023-03-14T08:24:32;9.30;;;2.43;;
64353;SDS011;50681;53.334;-6.536;2023-03-14T08:26:58;8.27;;;2.70;;
64353;SDS011;50681;53.334;-6.536;2023-03-14T08:29:23;6.83;;;2.00;;
64353;SDS011;50681;53.334;-6.536;2023-03-14T08:31:49;9.97;;;2.27;;
64353;SDS011;50681;53.334;-6.536;2023-03-14T08:36:44;6.40;;;2.07;;
64353;SDS011;50681;53.334;-6.536;2023-03-14T08:39:10;9.65;;;2.55;;
64353;SDS011;50681;53.334;-6.536;2023-03-14T08:41:35;10.20;;;2.70;;
64353;SDS011;50681;53.334;-6.536;2023-03-14T08:44:05;18.20;;;2.60;;
64353;SDS011;50681;53.334;-6.536;2023-03-14T08:46:31;13.63;;;2.45;;
64353;SDS011;50681;53.334;-6.536;2023-03-14T08:48:57;12.73;;;2.90;;
64353;SDS011;50681;53.334;-6.536;2023-03-14T08:51:22;15.13;;;3.07;;
64353;SDS011;50681;53.334;-6.536;2023-03-14T08:53:48;7.33;;;2.30;;
64353;SDS011;50681;53.334;-6.536;2023-03-14T08:56:13;9.70;;;2.70;;
64353;SDS011;50681;53.334;-6.536;2023-03-14T08:58:39;18.00;;;4.13;;
64353;SDS011;50681;53.334;-6.536;2023-03-14T09:01:07;21.33;;;5.67;;
64353;SDS011;50681;53.334;-6.536;2023-03-14T09:03:35;12.67;;;3.40;;
64353;SDS011;50681;53.334;-6.536;2023-03-14T09:06:14;23.70;;;6.93;;
64353;SDS011;50681;53.334;-6.536;2023-03-14T09:08:42;16.80;;;7.87;;
64353;SDS011;50681;53.334;-6.536;2023-03-14T09:15:43;12.97;;;4.03;;
64353;SDS011;50681;53.334;-6.536;2023-03-14T09:20:50;22.60;;;3.37;;
64353;SDS011;50681;53.334;-6.536;2023-03-14T09:23:16;8.02;;;2.80;;
64353;SDS011;50681;53.334;-6.536;2023-03-14T09:25:45;15.73;;;2.50;;
64353;SDS011;50681;53.334;-6.536;2023-03-14T09:28:11;12.20;;;2.63;;
64353;SDS011;50681;53.334;-6.536;2023-03-14T09:30:38;14.63;;;3.10;;
64353;SDS011;50681;53.334;-6.536;2023-03-14T09:33:04;15.27;;;2.38;;
64353;SDS011;50681;53.334;-6.536;2023-03-14T09:35:29;23.57;;;4.00;;
64353;SDS011;50681;53.334;-6.536;2023-03-14T09:37:55;16.55;;;3.25;;
64353;SDS011;50681;53.334;-6.536;2023-03-14T09:40:21;20.10;;;4.60;;
64353;SDS011;50681;53.334;-6.536;2023-03-14T09:42:50;31.53;;;12.90;;
64353;SDS011;50681;53.334;-6.536;2023-03-14T09:45:23;19.07;;;3.20;;
64353;SDS011;50681;53.334;-6.536;2023-03-14T09:47:53;11.63;;;2.37;;
64353;SDS011;50681;53.334;-6.536;2023-03-14T09:50:20;17.27;;;4.80;;
64353;SDS011;50681;53.334;-6.536;2023-03-14T09:52:48;19.25;;;4.97;;
64353;SDS011;50681;53.334;-6.536;2023-03-14T09:55:20;21.97;;;5.50;;
64353;SDS011;50681;53.334;-6.536;2023-03-14T09:57:47;30.77;;;8.00;;
64353;SDS011;50681;53.334;-6.536;2023-03-14T10:00:25;57.53;;;16.53;;
64353;SDS011;50681;53.334;-6.536;2023-03-14T10:02:54;15.97;;;5.13;;
64353;SDS011;50681;53.334;-6.536;2023-03-14T10:05:23;19.60;;;6.47;;
64353;SDS011;50681;53.334;-6.536;2023-03-14T10:07:50;11.73;;;2.77;;
64353;SDS011;50681;53.334;-6.536;2023-03-14T10:12:46;9.83;;;2.87;;
64353;SDS011;50681;53.334;-6.536;2023-03-14T10:15:22;10.10;;;2.10;;
64353;SDS011;50681;53.334;-6.536;2023-03-14T10:17:51;8.80;;;2.50;;
64353;SDS011;50681;53.334;-6.536;2023-03-14T10:20:27;9.52;;;2.60;;
64353;SDS011;50681;53.334;-6.536;2023-03-14T10:22:57;14.65;;;1.98;;
64353;SDS011;50681;53.334;-6.536;2023-03-14T10:25:27;11.27;;;1.83;;
64353;SDS011;50681;53.334;-6.536;2023-03-14T10:27:58;9.53;;;1.93;;
64353;SDS011;50681;53.334;-6.536;2023-03-14T10:30:29;6.63;;;1.77;;
64353;SDS011;50681;53.334;-6.536;2023-03-14T10:35:44;10.33;;;1.60;;
64353;SDS011;50681;53.334;-6.536;2023-03-14T10:38:12;16.70;;;6.72;;
64353;SDS011;50681;53.334;-6.536;2023-03-14T10:40:40;9.73;;;2.53;;
64353;SDS011;50681;53.334;-6.536;2023-03-14T10:43:15;18.48;;;3.17;;
64353;SDS011;50681;53.334;-6.536;2023-03-14T10:45:51;7.72;;;1.70;;
64353;SDS011;50681;53.334;-6.536;2023-03-14T10:48:23;8.32;;;1.50;;
64353;SDS011;50681;53.334;-6.536;2023-03-14T10:51:02;2.03;;;0.77;;
64353;SDS011;50681;53.334;-6.536;2023-03-14T10:53:48;9.23;;;2.13;;
64353;SDS011;50681;53.334;-6.536;2023-03-14T10:56:25;15.75;;;3.63;;
64353;SDS011;50681;53.334;-6.536;2023-03-14T10:59:12;9.95;;;3.28;;
64353;SDS011;50681;53.334;-6.536;2023-03-14T11:07:32;17.77;;;4.05;;
64353;SDS011;50681;53.334;-6.536;2023-03-14T11:10:08;17.75;;;2.45;;
64353;SDS011;50681;53.334;-6.536;2023-03-14T11:15:39;6.43;;;1.95;;
64353;SDS011;50681;53.334;-6.536;2023-03-14T11:18:26;7.30;;;1.50;;
64353;SDS011;50681;53.334;-6.536;2023-03-14T11:20:55;5.93;;;1.20;;
64353;SDS011;50681;53.334;-6.536;2023-03-14T11:23:32;6.32;;;1.48;;
64353;SDS011;50681;53.334;-6.536;2023-03-14T11:26:32;2.40;;;0.90;;
64353;SDS011;50681;53.334;-6.536;2023-03-14T11:32:13;10.20;;;2.10;;
64353;SDS011;50681;53.334;-6.536;2023-03-14T11:37:34;13.82;;;1.70;;
64353;SDS011;50681;53.334;-6.536;2023-03-14T11:40:10;2.55;;;0.82;;
64353;SDS011;50681;53.334;-6.536;2023-03-14T11:43:24;6.20;;;1.10;;
64353;SDS011;50681;53.334;-6.536;2023-03-14T11:45:43;5.60;;;1.13;;
64353;SDS011;50681;53.334;-6.536;2023-03-14T11:51:02;9.27;;;2.25;;
64353;SDS011;50681;53.334;-6.536;2023-03-14T11:53:55;3.15;;;0.93;;
64353;SDS011;50681;53.334;-6.536;2023-03-14T11:56:39;5.38;;;1.23;;
64353;SDS011;50681;53.334;-6.536;2023-03-14T11:59:12;2.17;;;1.33;;
64353;SDS011;50681;53.334;-6.536;2023-03-14T12:01:52;6.97;;;0.90;;
64353;SDS011;50681;53.334;-6.536;2023-03-14T12:04:40;12.68;;;2.53;;
64353;SDS011;50681;53.334;-6.536;2023-03-14T12:10:46;3.22;;;0.80;;
64353;SDS011;50681;53.334;-6.536;2023-03-14T12:13:16;2.53;;;0.68;;
64353;SDS011;50681;53.334;-6.536;2023-03-14T12:15:50;5.05;;;1.17;;
64353;SDS011;50681;53.334;-6.536;2023-03-14T12:20:50;4.27;;;1.00;;
64353;SDS011;50681;53.334;-6.536;2023-03-14T12:23:19;3.95;;;1.70;;
64353;SDS011;50681;53.334;-6.536;2023-03-14T12:25:45;2.30;;;1.02;;
64353;SDS011;50681;53.334;-6.536;2023-03-14T12:28:20;4.03;;;1.10;;
64353;SDS011;50681;53.334;-6.536;2023-03-14T12:30:55;8.60;;;1.85;;
64353;SDS011;50681;53.334;-6.536;2023-03-14T12:33:30;3.60;;;1.30;;
64353;SDS011;50681;53.334;-6.536;2023-03-14T12:36:00;4.00;;;1.15;;
64353;SDS011;50681;53.334;-6.536;2023-03-14T12:41:19;5.80;;;1.13;;
64353;SDS011;50681;53.334;-6.536;2023-03-14T12:43:48;6.97;;;2.08;;
64353;SDS011;50681;53.334;-6.536;2023-03-14T12:59:04;3.38;;;1.00;;
64353;SDS011;50681;53.334;-6.536;2023-03-14T13:01:26;6.65;;;1.30;;
64353;SDS011;50681;53.334;-6.536;2023-03-14T13:03:52;5.93;;;1.50;;
64353;SDS011;50681;53.334;-6.536;2023-03-14T13:11:50;7.43;;;2.50;;
64353;SDS011;50681;53.334;-6.536;2023-03-14T13:14:19;2.75;;;1.38;;
64353;SDS011;50681;53.334;-6.536;2023-03-14T13:16:49;6.65;;;2.40;;
64353;SDS011;50681;53.334;-6.536;2023-03-14T13:19:24;6.25;;;3.33;;
64353;SDS011;50681;53.334;-6.536;2023-03-14T13:21:55;1.60;;;0.80;;
64353;SDS011;50681;53.334;-6.536;2023-03-14T13:24:27;2.60;;;0.88;;
64353;SDS011;50681;53.334;-6.536;2023-03-14T13:26:54;2.92;;;0.98;;
64353;SDS011;50681;53.334;-6.536;2023-03-14T13:29:25;4.90;;;1.88;;
64353;SDS011;50681;53.334;-6.536;2023-03-14T13:31:54;1.52;;;0.90;;
64353;SDS011;50681;53.334;-6.536;2023-03-14T13:34:34;3.35;;;1.40;;
64353;SDS011;50681;53.334;-6.536;2023-03-14T13:37:00;5.55;;;1.92;;
64353;SDS011;50681;53.334;-6.536;2023-03-14T13:39:26;4.15;;;0.90;;
64353;SDS011;50681;53.334;-6.536;2023-03-14T13:41:55;4.20;;;1.70;;
64353;SDS011;50681;53.334;-6.536;2023-03-14T13:44:30;2.42;;;1.20;;
64353;SDS011;50681;53.334;-6.536;2023-03-14T13:46:59;0.90;;;0.65;;
64353;SDS011;50681;53.334;-6.536;2023-03-14T13:49:26;4.60;;;0.80;;
64353;SDS011;50681;53.334;-6.536;2023-03-14T13:51:54;1.92;;;0.90;;
64353;SDS011;50681;53.334;-6.536;2023-03-14T13:54:20;1.70;;;1.00;;
64353;SDS011;50681;53.334;-6.536;2023-03-14T13:56:47;3.58;;;1.33;;
64353;SDS011;50681;53.334;-6.536;2023-03-14T13:59:29;3.45;;;1.08;;
64353;SDS011;50681;53.334;-6.536;2023-03-14T14:01:56;4.35;;;1.30;;
64353;SDS011;50681;53.334;-6.536;2023-03-14T14:04:44;2.20;;;1.23;;
64353;SDS011;50681;53.334;-6.536;2023-03-14T14:07:13;2.28;;;0.90;;
64353;SDS011;50681;53.334;-6.536;2023-03-14T14:09:44;3.15;;;1.58;;
64353;SDS011;50681;53.334;-6.536;2023-03-14T14:15:00;0.98;;;0.70;;
64353;SDS011;50681;53.334;-6.536;2023-03-14T14:17:38;3.13;;;1.10;;
64353;SDS011;50681;53.334;-6.536;2023-03-14T14:20:08;0.75;;;0.57;;
64353;SDS011;50681;53.334;-6.536;2023-03-14T14:22:46;3.53;;;1.08;;
64353;SDS011;50681;53.334;-6.536;2023-03-14T14:25:13;0.95;;;0.63;;
64353;SDS011;50681;53.334;-6.536;2023-03-14T14:27:47;1.13;;;0.50;;
64353;SDS011;50681;53.334;-6.536;2023-03-14T14:32:48;1.67;;;0.40;;
64353;SDS011;50681;53.334;-6.536;2023-03-14T14:35:24;2.80;;;0.77;;
64353;SDS011;50681;53.334;-6.536;2023-03-14T14:37:55;1.30;;;0.55;;
64353;SDS011;50681;53.334;-6.536;2023-03-14T14:43:19;1.48;;;0.73;;
64353;SDS011;50681;53.334;-6.536;2023-03-14T14:45:53;1.52;;;0.80;;
64353;SDS011;50681;53.334;-6.536;2023-03-14T14:48:23;1.20;;;0.45;;
64353;SDS011;50681;53.334;-6.536;2023-03-14T14:50:54;5.50;;;0.90;;
64353;SDS011;50681;53.334;-6.536;2023-03-14T14:53:28;1.15;;;0.70;;
64353;SDS011;50681;53.334;-6.536;2023-03-14T14:56:15;0.95;;;0.70;;
64353;SDS011;50681;53.334;-6.536;2023-03-14T14:58:43;1.70;;;0.52;;
64353;SDS011;50681;53.334;-6.536;2023-03-14T15:03:43;1.08;;;0.68;;
64353;SDS011;50681;53.334;-6.536;2023-03-14T15:06:14;1.60;;;0.77;;
64353;SDS011;50681;53.334;-6.536;2023-03-14T15:08:42;1.70;;;0.52;;
64353;SDS011;50681;53.334;-6.536;2023-03-14T15:11:10;0.52;;;0.30;;
64353;SDS011;50681;53.334;-6.536;2023-03-14T15:13:43;1.25;;;0.63;;
64353;SDS011;50681;53.334;-6.536;2023-03-14T15:16:12;2.60;;;1.23;;
64353;SDS011;50681;53.334;-6.536;2023-03-14T15:21:45;1.88;;;1.00;;
64353;SDS011;50681;53.334;-6.536;2023-03-14T15:24:12;6.90;;;0.63;;
64353;SDS011;50681;53.334;-6.536;2023-03-14T15:29:03;0.60;;;0.45;;
64353;SDS011;50681;53.334;-6.536;2023-03-14T15:31:29;1.48;;;0.70;;
64353;SDS011;50681;53.334;-6.536;2023-03-14T15:33:55;1.67;;;1.07;;
64353;SDS011;50681;53.334;-6.536;2023-03-14T15:36:28;1.33;;;0.63;;
64353;SDS011;50681;53.334;-6.536;2023-03-14T15:39:19;1.10;;;0.70;;
64353;SDS011;50681;53.334;-6.536;2023-03-14T15:42:00;6.78;;;0.90;;
64353;SDS011;50681;53.334;-6.536;2023-03-14T15:47:16;1.20;;;0.52;;
64353;SDS011;50681;53.334;-6.536;2023-03-14T15:49:50;1.95;;;0.77;;
64353;SDS011;50681;53.334;-6.536;2023-03-14T15:52:24;3.60;;;1.42;;
64353;SDS011;50681;53.334;-6.536;2023-03-14T15:54:51;1.90;;;0.77;;
64353;SDS011;50681;53.334;-6.536;2023-03-14T15:57:19;1.58;;;0.75;;
64353;SDS011;50681;53.334;-6.536;2023-03-14T15:59:45;2.00;;;0.97;;
64353;SDS011;50681;53.334;-6.536;2023-03-14T16:02:11;1.75;;;0.80;;
64353;SDS011;50681;53.334;-6.536;2023-03-14T16:04:36;2.73;;;0.93;;
64353;SDS011;50681;53.334;-6.536;2023-03-14T16:07:02;1.83;;;0.83;;
64353;SDS011;50681;53.334;-6.536;2023-03-14T16:12:03;1.80;;;0.80;;
64353;SDS011;50681;53.334;-6.536;2023-03-14T16:14:30;3.92;;;0.90;;
64353;SDS011;50681;53.334;-6.536;2023-03-14T16:16:56;3.65;;;0.73;;
64353;SDS011;50681;53.334;-6.536;2023-03-14T16:19:25;3.58;;;0.80;;
64353;SDS011;50681;53.334;-6.536;2023-03-14T16:21:51;1.23;;;0.43;;
64353;SDS011;50681;53.334;-6.536;2023-03-14T16:24:18;1.85;;;0.77;;
64353;SDS011;50681;53.334;-6.536;2023-03-14T16:29:10;5.57;;;0.90;;
64353;SDS011;50681;53.334;-6.536;2023-03-14T16:31:35;1.70;;;0.57;;